sensor_id;sensor_type;location;lat;lon;timestamp;temperature;humidity
61896;DHT22;47835;52.778;5.956;2024-01-15T00:32:42;2.90;99.90
61896;DHT22;47835;52.778;5.956;2024-01-15T00:47:23;2.90;99.90
61896;DHT22;47835;52.778;5.956;2024-01-15T04:05:24;2.30;99.90
61896;DHT22;47835;52.778;5.956;2024-01-15T04:35:48;2.20;99.90
61896;DHT22;47835;52.778;5.956;2024-01-15T05:12:42;1.90;99.90
61896;DHT22;47835;52.778;5.956;2024-01-15T05:15:35;1.40;99.90
61896;DHT22;47835;52.778;5.956;2024-01-15T06:05:31;1.50;99.90
61896;DHT22;47835;52.778;5.956;2024-01-15T07:00:27;1.90;99.90
61896;DHT22;47835;52.778;5.956;2024-01-15T07:03:41;1.90;99.90
61896;DHT22;47835;52.778;5.956;2024-01-15T07:06:47;2.00;99.90
61896;DHT22;47835;52.778;5.956;2024-01-15T07:09:52;1.90;99.90
61896;DHT22;47835;52.778;5.956;2024-01-15T07:13:14;1.70;99.90
61896;DHT22;47835;52.778;5.956;2024-01-15T07:16:42;2.00;99.90
61896;DHT22;47835;52.778;5.956;2024-01-15T08:09:50;1.70;99.90
61896;DHT22;47835;52.778;5.956;2024-01-15T10:31:00;2.20;99.90
61896;DHT22;47835;52.778;5.956;2024-01-15T10:44:51;2.40;99.90
61896;DHT22;47835;52.778;5.956;2024-01-15T11:18:00;1.90;99.90
61896;DHT22;47835;52.778;5.956;2024-01-15T11:28:04;1.50;99.90
61896;DHT22;47835;52.778;5.956;2024-01-15T11:31:07;1.60;99.90
61896;DHT22;47835;52.778;5.956;2024-01-15T11:33:54;1.70;99.90
61896;DHT22;47835;52.778;5.956;2024-01-15T11:37:56;1.90;99.90
61896;DHT22;47835;52.778;5.956;2024-01-15T11:41:18;2.80;99.90
61896;DHT22;47835;52.778;5.956;2024-01-15T11:43:44;2.90;99.90
61896;DHT22;47835;52.778;5.956;2024-01-15T11:46:57;3.10;99.90
61896;DHT22;47835;52.778;5.956;2024-01-15T11:52:41;3.00;99.90
61896;DHT22;47835;52.778;5.956;2024-01-15T11:55:37;3.40;99.90
61896;DHT22;47835;52.778;5.956;2024-01-15T11:58:08;3.60;99.90
61896;DHT22;47835;52.778;5.956;2024-01-15T12:00:45;3.60;99.90
61896;DHT22;47835;52.778;5.956;2024-01-15T12:03:31;3.50;99.90
61896;DHT22;47835;52.778;5.956;2024-01-15T12:06:18;3.60;99.90
61896;DHT22;47835;52.778;5.956;2024-01-15T12:09:10;4.10;99.90
61896;DHT22;47835;52.778;5.956;2024-01-15T12:27:20;5.00;99.90
61896;DHT22;47835;52.778;5.956;2024-01-15T12:30:38;4.20;99.90
61896;DHT22;47835;52.778;5.956;2024-01-15T12:33:48;3.70;99.90
61896;DHT22;47835;52.778;5.956;2024-01-15T13:03:06;3.80;99.90
61896;DHT22;47835;52.778;5.956;2024-01-15T13:33:37;3.80;99.90
61896;DHT22;47835;52.778;5.956;2024-01-15T13:37:24;3.90;99.90
61896;DHT22;47835;52.778;5.956;2024-01-15T13:44:19;4.10;99.90
61896;DHT22;47835;52.778;5.956;2024-01-15T13:48:03;4.20;99.90
61896;DHT22;47835;52.778;5.956;2024-01-15T13:51:08;4.20;99.90
61896;DHT22;47835;52.778;5.956;2024-01-15T13:58:11;4.40;99.90
61896;DHT22;47835;52.778;5.956;2024-01-15T14:05:03;4.50;99.90
61896;DHT22;47835;52.778;5.956;2024-01-15T14:11:21;4.40;99.90
61896;DHT22;47835;52.778;5.956;2024-01-15T14:48:00;3.00;99.90
61896;DHT22;47835;52.778;5.956;2024-01-15T14:56:08;2.70;99.90
61896;DHT22;47835;52.778;5.956;2024-01-15T15:13:56;3.00;99.90
61896;DHT22;47835;52.778;5.956;2024-01-15T15:34:41;2.80;99.90
61896;DHT22;47835;52.778;5.956;2024-01-15T15:45:53;2.20;99.90
61896;DHT22;47835;52.778;5.956;2024-01-15T15:56:47;1.70;99.90
61896;DHT22;47835;52.778;5.956;2024-01-15T16:03:25;1.80;99.90
61896;DHT22;47835;52.778;5.956;2024-01-15T20:35:40;1.30;99.90
61896;DHT22;47835;52.778;5.956;2024-01-15T20:38:05;1.30;99.90
61896;DHT22;47835;52.778;5.956;2024-01-15T20:40:31;1.60;99.90
61896;DHT22;47835;52.778;5.956;2024-01-15T20:42:57;1.30;99.90
61896;DHT22;47835;52.778;5.956;2024-01-15T20:45:22;1.60;99.90
61896;DHT22;47835;52.778;5.956;2024-01-15T20:47:48;1.30;99.90
61896;DHT22;47835;52.778;5.956;2024-01-15T20:50:13;1.40;99.90
61896;DHT22;47835;52.778;5.956;2024-01-15T20:52:39;1.00;99.90
61896;DHT22;47835;52.778;5.956;2024-01-15T20:55:06;1.20;99.90
61896;DHT22;47835;52.778;5.956;2024-01-15T20:57:33;1.00;99.90
61896;DHT22;47835;52.778;5.956;2024-01-15T21:00:07;1.30;99.90
61896;DHT22;47835;52.778;5.956;2024-01-15T21:02:35;1.30;99.90
61896;DHT22;47835;52.778;5.956;2024-01-15T21:05:10;0.80;99.90
61896;DHT22;47835;52.778;5.956;2024-01-15T21:07:36;1.20;99.90
61896;DHT22;47835;52.778;5.956;2024-01-15T21:10:02;0.80;99.90
61896;DHT22;47835;52.778;5.956;2024-01-15T21:12:28;0.70;99.90
61896;DHT22;47835;52.778;5.956;2024-01-15T21:14:53;1.20;99.90
61896;DHT22;47835;52.778;5.956;2024-01-15T21:17:21;1.10;99.90
61896;DHT22;47835;52.778;5.956;2024-01-15T21:20:17;0.70;99.90
61896;DHT22;47835;52.778;5.956;2024-01-15T21:22:45;1.10;99.90
61896;DHT22;47835;52.778;5.956;2024-01-15T21:25:11;0.70;99.90
61896;DHT22;47835;52.778;5.956;2024-01-15T21:27:37;0.60;99.90
61896;DHT22;47835;52.778;5.956;2024-01-15T21:30:06;0.60;99.90
61896;DHT22;47835;52.778;5.956;2024-01-15T21:32:32;0.90;99.90
61896;DHT22;47835;52.778;5.956;2024-01-15T21:35:05;0.60;99.90
61896;DHT22;47835;52.778;5.956;2024-01-15T21:37:31;0.60;99.90
61896;DHT22;47835;52.778;5.956;2024-01-15T21:39:57;1.00;99.90
61896;DHT22;47835;52.778;5.956;2024-01-15T21:42:25;1.10;99.90
61896;DHT22;47835;52.778;5.956;2024-01-15T21:44:51;1.20;99.90
61896;DHT22;47835;52.778;5.956;2024-01-15T21:47:17;1.10;99.90
61896;DHT22;47835;52.778;5.956;2024-01-15T21:49:42;1.00;99.90
61896;DHT22;47835;52.778;5.956;2024-01-15T21:52:11;1.20;99.90
61896;DHT22;47835;52.778;5.956;2024-01-15T21:54:36;0.90;99.90
61896;DHT22;47835;52.778;5.956;2024-01-15T21:57:02;1.00;99.90
61896;DHT22;47835;52.778;5.956;2024-01-15T21:59:30;1.00;99.90
61896;DHT22;47835;52.778;5.956;2024-01-15T22:01:55;1.20;99.90
61896;DHT22;47835;52.778;5.956;2024-01-15T22:04:21;0.90;99.90
61896;DHT22;47835;52.778;5.956;2024-01-15T22:06:47;0.80;99.90
61896;DHT22;47835;52.778;5.956;2024-01-15T22:09:13;1.00;99.90
61896;DHT22;47835;52.778;5.956;2024-01-15T22:11:39;1.00;99.90
61896;DHT22;47835;52.778;5.956;2024-01-15T22:14:04;0.90;99.90
61896;DHT22;47835;52.778;5.956;2024-01-15T22:16:32;0.90;99.90
61896;DHT22;47835;52.778;5.956;2024-01-15T22:19:01;0.80;99.90
61896;DHT22;47835;52.778;5.956;2024-01-15T22:21:41;0.80;99.90
61896;DHT22;47835;52.778;5.956;2024-01-15T22:24:07;0.80;99.90
61896;DHT22;47835;52.778;5.956;2024-01-15T22:26:33;0.70;99.90
61896;DHT22;47835;52.778;5.956;2024-01-15T22:29:10;0.70;99.90
61896;DHT22;47835;52.778;5.956;2024-01-15T22:31:44;0.90;99.90
61896;DHT22;47835;52.778;5.956;2024-01-15T22:34:17;0.70;99.90
61896;DHT22;47835;52.778;5.956;2024-01-15T22:36:43;0.80;99.90
61896;DHT22;47835;52.778;5.956;2024-01-15T22:39:09;1.00;99.90
61896;DHT22;47835;52.778;5.956;2024-01-15T22:41:44;1.00;99.90
61896;DHT22;47835;52.778;5.956;2024-01-15T22:44:12;0.80;99.90
61896;DHT22;47835;52.778;5.956;2024-01-15T22:46:38;1.20;99.90
61896;DHT22;47835;52.778;5.956;2024-01-15T22:49:03;1.20;99.90
61896;DHT22;47835;52.778;5.956;2024-01-15T22:51:29;1.00;99.90
61896;DHT22;47835;52.778;5.956;2024-01-15T22:53:57;0.90;99.90
61896;DHT22;47835;52.778;5.956;2024-01-15T22:56:22;0.90;99.90
61896;DHT22;47835;52.778;5.956;2024-01-15T22:58:48;1.20;99.90
61896;DHT22;47835;52.778;5.956;2024-01-15T23:01:14;1.20;99.90
61896;DHT22;47835;52.778;5.956;2024-01-15T23:03:39;0.90;99.90
61896;DHT22;47835;52.778;5.956;2024-01-15T23:06:15;1.00;99.90
61896;DHT22;47835;52.778;5.956;2024-01-15T23:08:40;1.30;99.90
61896;DHT22;47835;52.778;5.956;2024-01-15T23:11:09;1.20;99.90
61896;DHT22;47835;52.778;5.956;2024-01-15T23:13:34;1.20;99.90
61896;DHT22;47835;52.778;5.956;2024-01-15T23:16:00;1.20;99.90
61896;DHT22;47835;52.778;5.956;2024-01-15T23:18:26;1.10;99.90
61896;DHT22;47835;52.778;5.956;2024-01-15T23:20:51;0.70;99.90
61896;DHT22;47835;52.778;5.956;2024-01-15T23:23:17;0.70;99.90
61896;DHT22;47835;52.778;5.956;2024-01-15T23:25:43;0.90;99.90
61896;DHT22;47835;52.778;5.956;2024-01-15T23:28:08;0.70;99.90
61896;DHT22;47835;52.778;5.956;2024-01-15T23:30:36;0.60;99.90
61896;DHT22;47835;52.778;5.956;2024-01-15T23:33:04;0.50;99.90
61896;DHT22;47835;52.778;5.956;2024-01-15T23:35:38;0.80;99.90
61896;DHT22;47835;52.778;5.956;2024-01-15T23:38:04;0.80;99.90
61896;DHT22;47835;52.778;5.956;2024-01-15T23:40:30;0.70;99.90
61896;DHT22;47835;52.778;5.956;2024-01-15T23:42:55;0.80;99.90
61896;DHT22;47835;52.778;5.956;2024-01-15T23:45:21;0.80;99.90
61896;DHT22;47835;52.778;5.956;2024-01-15T23:47:46;0.80;99.90
61896;DHT22;47835;52.778;5.956;2024-01-15T23:50:12;0.80;99.90
61896;DHT22;47835;52.778;5.956;2024-01-15T23:52:38;0.60;99.90
61896;DHT22;47835;52.778;5.956;2024-01-15T23:55:04;1.10;99.90
61896;DHT22;47835;52.778;5.956;2024-01-15T23:57:33;0.70;99.90
61896;DHT22;47835;52.778;5.956;2024-01-15T23:59:59;0.80;99.90
